sensor_id;sensor_type;location;lat;lon;timestamp;P1;durP1;ratioP1;P2;durP2;ratioP2
29824;SDS011;16713;52.916;12.834;2024-01-27T00:00:25;18.77;;;2.90;;
29824;SDS011;16713;52.916;12.834;2024-01-27T00:02:52;14.48;;;2.80;;
29824;SDS011;16713;52.916;12.834;2024-01-27T00:05:19;14.75;;;3.35;;
29824;SDS011;16713;52.916;12.834;2024-01-27T00:07:45;15.57;;;3.50;;
29824;SDS011;16713;52.916;12.834;2024-01-27T00:10:12;14.23;;;3.10;;
29824;SDS011;16713;52.916;12.834;2024-01-27T00:12:38;21.48;;;3.70;;
29824;SDS011;16713;52.916;12.834;2024-01-27T00:15:06;22.67;;;4.28;;
29824;SDS011;16713;52.916;12.834;2024-01-27T00:17:34;19.10;;;3.00;;
29824;SDS011;16713;52.916;12.834;2024-01-27T00:20:02;17.33;;;3.25;;
29824;SDS011;16713;52.916;12.834;2024-01-27T00:22:29;18.23;;;4.05;;
29824;SDS011;16713;52.916;12.834;2024-01-27T00:24:55;18.45;;;3.63;;
29824;SDS011;16713;52.916;12.834;2024-01-27T00:27:22;17.85;;;3.42;;
29824;SDS011;16713;52.916;12.834;2024-01-27T00:29:48;21.13;;;5.45;;
29824;SDS011;16713;52.916;12.834;2024-01-27T00:32:15;18.88;;;4.90;;
29824;SDS011;16713;52.916;12.834;2024-01-27T00:34:41;19.52;;;3.80;;
29824;SDS011;16713;52.916;12.834;2024-01-27T00:37:08;21.73;;;3.47;;
29824;SDS011;16713;52.916;12.834;2024-01-27T00:39:34;24.23;;;3.40;;
29824;SDS011;16713;52.916;12.834;2024-01-27T00:42:01;28.73;;;4.80;;
29824;SDS011;16713;52.916;12.834;2024-01-27T00:44:27;15.40;;;5.00;;
29824;SDS011;16713;52.916;12.834;2024-01-27T00:46:54;20.02;;;2.92;;
29824;SDS011;16713;52.916;12.834;2024-01-27T00:49:20;31.05;;;4.53;;
29824;SDS011;16713;52.916;12.834;2024-01-27T00:51:47;15.68;;;3.20;;
29824;SDS011;16713;52.916;12.834;2024-01-27T00:54:14;21.08;;;4.18;;
29824;SDS011;16713;52.916;12.834;2024-01-27T00:56:40;16.95;;;3.58;;
29824;SDS011;16713;52.916;12.834;2024-01-27T00:59:07;20.90;;;3.30;;
29824;SDS011;16713;52.916;12.834;2024-01-27T01:01:33;21.63;;;3.10;;
29824;SDS011;16713;52.916;12.834;2024-01-27T01:04:00;12.85;;;3.25;;
29824;SDS011;16713;52.916;12.834;2024-01-27T01:06:26;18.00;;;4.05;;
29824;SDS011;16713;52.916;12.834;2024-01-27T01:08:53;17.38;;;3.38;;
29824;SDS011;16713;52.916;12.834;2024-01-27T01:11:19;16.50;;;3.15;;
29824;SDS011;16713;52.916;12.834;2024-01-27T01:13:46;16.40;;;4.00;;
29824;SDS011;16713;52.916;12.834;2024-01-27T01:16:12;18.88;;;3.13;;
29824;SDS011;16713;52.916;12.834;2024-01-27T01:18:40;16.45;;;4.72;;
29824;SDS011;16713;52.916;12.834;2024-01-27T01:21:06;21.13;;;3.67;;
29824;SDS011;16713;52.916;12.834;2024-01-27T01:23:33;23.80;;;5.43;;
29824;SDS011;16713;52.916;12.834;2024-01-27T01:25:59;18.33;;;4.15;;
29824;SDS011;16713;52.916;12.834;2024-01-27T01:28:26;21.02;;;3.40;;
29824;SDS011;16713;52.916;12.834;2024-01-27T01:30:52;21.10;;;3.17;;
29824;SDS011;16713;52.916;12.834;2024-01-27T01:33:19;15.25;;;3.78;;
29824;SDS011;16713;52.916;12.834;2024-01-27T01:35:46;19.08;;;4.82;;
29824;SDS011;16713;52.916;12.834;2024-01-27T01:38:12;25.10;;;3.78;;
29824;SDS011;16713;52.916;12.834;2024-01-27T01:40:39;20.23;;;3.35;;
29824;SDS011;16713;52.916;12.834;2024-01-27T01:43:11;30.02;;;5.13;;
29824;SDS011;16713;52.916;12.834;2024-01-27T01:45:38;33.22;;;4.40;;
29824;SDS011;16713;52.916;12.834;2024-01-27T01:48:05;19.13;;;3.88;;
29824;SDS011;16713;52.916;12.834;2024-01-27T01:50:33;23.58;;;4.28;;
29824;SDS011;16713;52.916;12.834;2024-01-27T01:53:00;21.75;;;3.83;;
29824;SDS011;16713;52.916;12.834;2024-01-27T01:55:27;23.42;;;4.45;;
29824;SDS011;16713;52.916;12.834;2024-01-27T01:57:53;28.48;;;5.00;;
29824;SDS011;16713;52.916;12.834;2024-01-27T02:00:20;23.70;;;4.07;;
29824;SDS011;16713;52.916;12.834;2024-01-27T02:02:47;22.67;;;4.03;;
29824;SDS011;16713;52.916;12.834;2024-01-27T02:05:14;24.75;;;5.55;;
29824;SDS011;16713;52.916;12.834;2024-01-27T02:07:41;22.40;;;3.25;;
29824;SDS011;16713;52.916;12.834;2024-01-27T02:10:14;23.60;;;4.07;;
29824;SDS011;16713;52.916;12.834;2024-01-27T02:12:42;21.25;;;4.32;;
29824;SDS011;16713;52.916;12.834;2024-01-27T02:15:12;30.05;;;5.25;;
29824;SDS011;16713;52.916;12.834;2024-01-27T02:17:40;18.92;;;3.83;;
29824;SDS011;16713;52.916;12.834;2024-01-27T02:20:07;19.35;;;4.28;;
29824;SDS011;16713;52.916;12.834;2024-01-27T02:22:35;22.10;;;4.30;;
29824;SDS011;16713;52.916;12.834;2024-01-27T02:25:02;27.27;;;5.50;;
29824;SDS011;16713;52.916;12.834;2024-01-27T02:27:29;16.90;;;4.45;;
29824;SDS011;16713;52.916;12.834;2024-01-27T02:29:55;17.88;;;3.47;;
29824;SDS011;16713;52.916;12.834;2024-01-27T02:32:22;23.23;;;4.72;;
29824;SDS011;16713;52.916;12.834;2024-01-27T02:34:49;29.00;;;3.85;;
29824;SDS011;16713;52.916;12.834;2024-01-27T02:37:15;21.25;;;4.03;;
29824;SDS011;16713;52.916;12.834;2024-01-27T02:39:42;24.35;;;4.28;;
29824;SDS011;16713;52.916;12.834;2024-01-27T02:42:08;25.60;;;5.90;;
29824;SDS011;16713;52.916;12.834;2024-01-27T02:44:35;17.60;;;3.75;;
29824;SDS011;16713;52.916;12.834;2024-01-27T02:47:01;25.08;;;5.07;;
29824;SDS011;16713;52.916;12.834;2024-01-27T02:49:27;19.52;;;4.30;;
29824;SDS011;16713;52.916;12.834;2024-01-27T02:51:54;40.53;;;6.50;;
29824;SDS011;16713;52.916;12.834;2024-01-27T02:54:21;17.42;;;3.90;;
29824;SDS011;16713;52.916;12.834;2024-01-27T02:56:47;21.50;;;4.90;;
29824;SDS011;16713;52.916;12.834;2024-01-27T02:59:14;23.80;;;3.85;;
29824;SDS011;16713;52.916;12.834;2024-01-27T03:01:40;21.45;;;3.40;;
29824;SDS011;16713;52.916;12.834;2024-01-27T03:04:06;22.33;;;3.88;;
29824;SDS011;16713;52.916;12.834;2024-01-27T03:06:33;22.98;;;4.78;;
29824;SDS011;16713;52.916;12.834;2024-01-27T03:09:00;18.10;;;5.10;;
29824;SDS011;16713;52.916;12.834;2024-01-27T03:11:26;28.83;;;4.82;;
29824;SDS011;16713;52.916;12.834;2024-01-27T03:13:53;28.45;;;4.13;;
29824;SDS011;16713;52.916;12.834;2024-01-27T03:16:19;19.88;;;3.38;;
29824;SDS011;16713;52.916;12.834;2024-01-27T03:18:46;22.05;;;4.25;;
29824;SDS011;16713;52.916;12.834;2024-01-27T03:21:12;25.58;;;5.20;;
29824;SDS011;16713;52.916;12.834;2024-01-27T03:23:40;26.48;;;4.30;;
29824;SDS011;16713;52.916;12.834;2024-01-27T03:26:06;21.25;;;3.78;;
29824;SDS011;16713;52.916;12.834;2024-01-27T03:28:33;23.45;;;4.15;;
29824;SDS011;16713;52.916;12.834;2024-01-27T03:30:59;22.23;;;4.22;;
29824;SDS011;16713;52.916;12.834;2024-01-27T03:33:26;22.55;;;3.67;;
29824;SDS011;16713;52.916;12.834;2024-01-27T03:35:56;18.13;;;3.72;;
29824;SDS011;16713;52.916;12.834;2024-01-27T03:38:22;24.90;;;4.93;;
29824;SDS011;16713;52.916;12.834;2024-01-27T03:40:49;25.65;;;4.28;;
29824;SDS011;16713;52.916;12.834;2024-01-27T03:43:16;29.42;;;5.38;;
29824;SDS011;16713;52.916;12.834;2024-01-27T03:45:42;16.92;;;3.58;;
29824;SDS011;16713;52.916;12.834;2024-01-27T03:48:09;18.08;;;3.85;;
29824;SDS011;16713;52.916;12.834;2024-01-27T03:50:35;16.70;;;4.43;;
29824;SDS011;16713;52.916;12.834;2024-01-27T03:53:02;23.10;;;4.88;;
29824;SDS011;16713;52.916;12.834;2024-01-27T03:55:28;24.90;;;4.03;;
29824;SDS011;16713;52.916;12.834;2024-01-27T03:57:55;21.67;;;3.95;;
29824;SDS011;16713;52.916;12.834;2024-01-27T04:00:21;23.48;;;3.90;;
29824;SDS011;16713;52.916;12.834;2024-01-27T04:02:48;22.40;;;3.28;;
29824;SDS011;16713;52.916;12.834;2024-01-27T04:05:15;20.67;;;4.22;;
29824;SDS011;16713;52.916;12.834;2024-01-27T04:07:41;21.92;;;3.35;;
29824;SDS011;16713;52.916;12.834;2024-01-27T04:10:08;25.52;;;5.25;;
29824;SDS011;16713;52.916;12.834;2024-01-27T04:12:35;19.00;;;3.88;;
29824;SDS011;16713;52.916;12.834;2024-01-27T04:15:01;19.85;;;4.57;;
29824;SDS011;16713;52.916;12.834;2024-01-27T04:17:28;24.45;;;3.17;;
29824;SDS011;16713;52.916;12.834;2024-01-27T04:19:55;22.63;;;3.38;;
29824;SDS011;16713;52.916;12.834;2024-01-27T04:22:21;21.98;;;3.40;;
29824;SDS011;16713;52.916;12.834;2024-01-27T04:24:48;28.92;;;4.22;;
29824;SDS011;16713;52.916;12.834;2024-01-27T04:27:14;16.77;;;4.18;;
29824;SDS011;16713;52.916;12.834;2024-01-27T04:29:41;21.58;;;4.15;;
29824;SDS011;16713;52.916;12.834;2024-01-27T04:32:08;28.17;;;5.05;;
29824;SDS011;16713;52.916;12.834;2024-01-27T04:34:34;28.67;;;3.90;;
29824;SDS011;16713;52.916;12.834;2024-01-27T04:37:01;23.10;;;4.90;;
29824;SDS011;16713;52.916;12.834;2024-01-27T04:39:27;24.73;;;4.50;;
29824;SDS011;16713;52.916;12.834;2024-01-27T04:41:54;17.70;;;3.95;;
29824;SDS011;16713;52.916;12.834;2024-01-27T04:44:20;16.40;;;3.28;;
29824;SDS011;16713;52.916;12.834;2024-01-27T04:46:47;35.97;;;4.30;;
29824;SDS011;16713;52.916;12.834;2024-01-27T04:49:14;20.73;;;3.72;;
29824;SDS011;16713;52.916;12.834;2024-01-27T04:51:42;20.17;;;4.20;;
29824;SDS011;16713;52.916;12.834;2024-01-27T04:54:08;20.23;;;3.40;;
29824;SDS011;16713;52.916;12.834;2024-01-27T04:56:36;22.58;;;3.28;;
29824;SDS011;16713;52.916;12.834;2024-01-27T04:59:03;18.50;;;3.10;;
29824;SDS011;16713;52.916;12.834;2024-01-27T05:01:29;27.02;;;3.67;;
29824;SDS011;16713;52.916;12.834;2024-01-27T05:03:56;30.48;;;4.30;;
29824;SDS011;16713;52.916;12.834;2024-01-27T05:06:22;20.95;;;4.15;;
29824;SDS011;16713;52.916;12.834;2024-01-27T05:08:49;27.70;;;5.38;;
29824;SDS011;16713;52.916;12.834;2024-01-27T05:11:24;23.20;;;4.78;;
29824;SDS011;16713;52.916;12.834;2024-01-27T05:13:51;22.73;;;4.20;;
29824;SDS011;16713;52.916;12.834;2024-01-27T05:16:18;32.22;;;3.92;;
29824;SDS011;16713;52.916;12.834;2024-01-27T05:18:44;24.60;;;6.40;;
29824;SDS011;16713;52.916;12.834;2024-01-27T05:21:11;27.05;;;3.30;;
29824;SDS011;16713;52.916;12.834;2024-01-27T05:23:37;21.60;;;4.90;;
29824;SDS011;16713;52.916;12.834;2024-01-27T05:26:05;26.70;;;4.45;;
29824;SDS011;16713;52.916;12.834;2024-01-27T05:28:32;30.00;;;4.60;;
29824;SDS011;16713;52.916;12.834;2024-01-27T05:30:59;24.88;;;5.45;;
29824;SDS011;16713;52.916;12.834;2024-01-27T05:33:26;27.42;;;5.13;;
29824;SDS011;16713;52.916;12.834;2024-01-27T05:35:52;22.65;;;4.72;;
29824;SDS011;16713;52.916;12.834;2024-01-27T05:38:19;25.13;;;3.58;;
29824;SDS011;16713;52.916;12.834;2024-01-27T05:40:45;19.67;;;3.55;;
29824;SDS011;16713;52.916;12.834;2024-01-27T05:43:12;18.80;;;5.18;;
29824;SDS011;16713;52.916;12.834;2024-01-27T05:45:38;25.10;;;3.80;;
29824;SDS011;16713;52.916;12.834;2024-01-27T05:48:05;20.88;;;5.60;;
29824;SDS011;16713;52.916;12.834;2024-01-27T05:50:32;37.65;;;7.22;;
29824;SDS011;16713;52.916;12.834;2024-01-27T05:53:00;24.92;;;4.82;;
29824;SDS011;16713;52.916;12.834;2024-01-27T05:55:27;18.13;;;4.05;;
29824;SDS011;16713;52.916;12.834;2024-01-27T05:57:53;19.70;;;4.07;;
29824;SDS011;16713;52.916;12.834;2024-01-27T06:00:21;20.40;;;3.90;;
29824;SDS011;16713;52.916;12.834;2024-01-27T06:02:48;20.73;;;4.50;;
29824;SDS011;16713;52.916;12.834;2024-01-27T06:05:15;22.17;;;3.97;;
29824;SDS011;16713;52.916;12.834;2024-01-27T06:07:42;20.88;;;5.47;;
29824;SDS011;16713;52.916;12.834;2024-01-27T06:10:09;29.98;;;4.97;;
29824;SDS011;16713;52.916;12.834;2024-01-27T06:12:36;29.02;;;4.88;;
29824;SDS011;16713;52.916;12.834;2024-01-27T06:15:04;24.38;;;4.45;;
29824;SDS011;16713;52.916;12.834;2024-01-27T06:17:32;21.27;;;3.78;;
29824;SDS011;16713;52.916;12.834;2024-01-27T06:19:58;30.67;;;4.70;;
29824;SDS011;16713;52.916;12.834;2024-01-27T06:22:25;19.48;;;3.88;;
29824;SDS011;16713;52.916;12.834;2024-01-27T06:24:51;20.90;;;4.30;;
29824;SDS011;16713;52.916;12.834;2024-01-27T06:27:18;26.02;;;4.88;;
29824;SDS011;16713;52.916;12.834;2024-01-27T06:29:44;22.40;;;4.80;;
29824;SDS011;16713;52.916;12.834;2024-01-27T06:32:11;20.13;;;3.47;;
29824;SDS011;16713;52.916;12.834;2024-01-27T06:34:39;26.52;;;4.38;;
29824;SDS011;16713;52.916;12.834;2024-01-27T06:37:05;19.77;;;3.95;;
29824;SDS011;16713;52.916;12.834;2024-01-27T06:39:32;28.38;;;4.50;;
29824;SDS011;16713;52.916;12.834;2024-01-27T06:41:58;19.52;;;4.35;;
29824;SDS011;16713;52.916;12.834;2024-01-27T06:44:25;15.35;;;4.82;;
29824;SDS011;16713;52.916;12.834;2024-01-27T06:46:51;19.48;;;3.90;;
29824;SDS011;16713;52.916;12.834;2024-01-27T06:49:18;23.48;;;3.90;;
29824;SDS011;16713;52.916;12.834;2024-01-27T06:51:45;27.60;;;3.53;;
29824;SDS011;16713;52.916;12.834;2024-01-27T06:54:12;26.77;;;4.25;;
29824;SDS011;16713;52.916;12.834;2024-01-27T06:56:38;29.08;;;3.78;;
29824;SDS011;16713;52.916;12.834;2024-01-27T06:59:05;25.75;;;3.70;;
29824;SDS011;16713;52.916;12.834;2024-01-27T07:01:31;24.98;;;3.83;;
29824;SDS011;16713;52.916;12.834;2024-01-27T07:03:58;22.42;;;3.70;;
29824;SDS011;16713;52.916;12.834;2024-01-27T07:06:25;27.60;;;3.35;;
29824;SDS011;16713;52.916;12.834;2024-01-27T07:08:51;24.40;;;3.67;;
29824;SDS011;16713;52.916;12.834;2024-01-27T07:11:18;29.85;;;4.78;;
29824;SDS011;16713;52.916;12.834;2024-01-27T07:13:44;26.50;;;4.20;;
29824;SDS011;16713;52.916;12.834;2024-01-27T07:16:10;17.08;;;4.43;;
29824;SDS011;16713;52.916;12.834;2024-01-27T07:18:37;27.50;;;3.83;;
29824;SDS011;16713;52.916;12.834;2024-01-27T07:21:04;27.83;;;3.90;;
29824;SDS011;16713;52.916;12.834;2024-01-27T07:23:34;24.17;;;4.55;;
29824;SDS011;16713;52.916;12.834;2024-01-27T07:26:01;23.85;;;4.47;;
29824;SDS011;16713;52.916;12.834;2024-01-27T07:28:29;23.17;;;3.92;;
29824;SDS011;16713;52.916;12.834;2024-01-27T07:30:56;22.92;;;3.78;;
29824;SDS011;16713;52.916;12.834;2024-01-27T07:33:22;21.45;;;4.50;;
29824;SDS011;16713;52.916;12.834;2024-01-27T07:35:49;22.10;;;3.78;;
29824;SDS011;16713;52.916;12.834;2024-01-27T07:38:16;20.38;;;4.07;;
29824;SDS011;16713;52.916;12.834;2024-01-27T07:40:42;21.13;;;4.80;;
29824;SDS011;16713;52.916;12.834;2024-01-27T07:43:09;25.75;;;4.00;;
29824;SDS011;16713;52.916;12.834;2024-01-27T07:45:35;22.33;;;3.97;;
29824;SDS011;16713;52.916;12.834;2024-01-27T07:48:02;21.45;;;3.97;;
29824;SDS011;16713;52.916;12.834;2024-01-27T07:50:29;22.73;;;4.40;;
29824;SDS011;16713;52.916;12.834;2024-01-27T07:52:57;33.65;;;4.63;;
29824;SDS011;16713;52.916;12.834;2024-01-27T07:55:23;20.13;;;5.45;;
29824;SDS011;16713;52.916;12.834;2024-01-27T07:57:50;29.92;;;4.60;;
29824;SDS011;16713;52.916;12.834;2024-01-27T08:00:16;19.65;;;3.90;;
29824;SDS011;16713;52.916;12.834;2024-01-27T08:02:43;26.83;;;5.55;;
29824;SDS011;16713;52.916;12.834;2024-01-27T08:05:10;23.33;;;5.18;;
29824;SDS011;16713;52.916;12.834;2024-01-27T08:07:37;26.23;;;4.50;;
29824;SDS011;16713;52.916;12.834;2024-01-27T08:10:03;23.92;;;5.00;;
29824;SDS011;16713;52.916;12.834;2024-01-27T08:12:31;16.33;;;4.28;;
29824;SDS011;16713;52.916;12.834;2024-01-27T08:14:57;23.75;;;5.85;;
29824;SDS011;16713;52.916;12.834;2024-01-27T08:17:24;20.38;;;4.68;;
29824;SDS011;16713;52.916;12.834;2024-01-27T08:19:51;23.30;;;3.80;;
29824;SDS011;16713;52.916;12.834;2024-01-27T08:22:18;25.25;;;5.13;;
29824;SDS011;16713;52.916;12.834;2024-01-27T08:24:44;16.17;;;3.75;;
29824;SDS011;16713;52.916;12.834;2024-01-27T08:27:11;15.80;;;3.15;;
29824;SDS011;16713;52.916;12.834;2024-01-27T08:29:37;26.88;;;4.88;;
29824;SDS011;16713;52.916;12.834;2024-01-27T08:32:04;18.50;;;4.00;;
29824;SDS011;16713;52.916;12.834;2024-01-27T08:34:31;20.73;;;3.97;;
29824;SDS011;16713;52.916;12.834;2024-01-27T08:36:59;23.85;;;5.50;;
29824;SDS011;16713;52.916;12.834;2024-01-27T08:39:26;24.33;;;3.60;;
29824;SDS011;16713;52.916;12.834;2024-01-27T08:41:53;25.27;;;4.13;;
29824;SDS011;16713;52.916;12.834;2024-01-27T08:44:20;23.35;;;4.93;;
29824;SDS011;16713;52.916;12.834;2024-01-27T08:46:46;18.33;;;3.30;;
29824;SDS011;16713;52.916;12.834;2024-01-27T08:49:13;26.95;;;7.13;;
29824;SDS011;16713;52.916;12.834;2024-01-27T08:51:39;26.25;;;4.68;;
29824;SDS011;16713;52.916;12.834;2024-01-27T08:54:06;27.80;;;4.57;;
29824;SDS011;16713;52.916;12.834;2024-01-27T08:56:33;20.90;;;3.30;;
29824;SDS011;16713;52.916;12.834;2024-01-27T08:58:59;19.83;;;3.47;;
29824;SDS011;16713;52.916;12.834;2024-01-27T09:01:25;21.95;;;5.30;;
29824;SDS011;16713;52.916;12.834;2024-01-27T09:03:52;23.23;;;4.43;;
29824;SDS011;16713;52.916;12.834;2024-01-27T09:06:18;21.40;;;4.07;;
29824;SDS011;16713;52.916;12.834;2024-01-27T09:08:45;14.45;;;3.47;;
29824;SDS011;16713;52.916;12.834;2024-01-27T09:11:12;23.13;;;3.10;;
29824;SDS011;16713;52.916;12.834;2024-01-27T09:13:38;22.88;;;3.72;;
29824;SDS011;16713;52.916;12.834;2024-01-27T09:16:05;19.33;;;3.30;;
29824;SDS011;16713;52.916;12.834;2024-01-27T09:18:32;31.02;;;4.82;;
29824;SDS011;16713;52.916;12.834;2024-01-27T09:20:58;27.70;;;5.53;;
29824;SDS011;16713;52.916;12.834;2024-01-27T09:23:25;22.63;;;4.97;;
29824;SDS011;16713;52.916;12.834;2024-01-27T09:25:52;23.48;;;3.92;;
29824;SDS011;16713;52.916;12.834;2024-01-27T09:28:18;18.08;;;4.88;;
29824;SDS011;16713;52.916;12.834;2024-01-27T09:30:45;18.60;;;4.07;;
29824;SDS011;16713;52.916;12.834;2024-01-27T09:33:11;15.48;;;2.85;;
29824;SDS011;16713;52.916;12.834;2024-01-27T09:35:39;24.17;;;4.60;;
29824;SDS011;16713;52.916;12.834;2024-01-27T09:38:05;20.33;;;4.78;;
29824;SDS011;16713;52.916;12.834;2024-01-27T09:40:35;18.75;;;3.38;;
29824;SDS011;16713;52.916;12.834;2024-01-27T09:43:02;18.05;;;5.60;;
29824;SDS011;16713;52.916;12.834;2024-01-27T09:45:28;18.15;;;3.72;;
29824;SDS011;16713;52.916;12.834;2024-01-27T09:47:56;27.70;;;3.97;;
29824;SDS011;16713;52.916;12.834;2024-01-27T09:50:24;26.20;;;3.83;;
29824;SDS011;16713;52.916;12.834;2024-01-27T09:52:51;17.48;;;3.47;;
29824;SDS011;16713;52.916;12.834;2024-01-27T09:55:18;19.13;;;4.80;;
29824;SDS011;16713;52.916;12.834;2024-01-27T09:57:45;18.35;;;3.45;;
29824;SDS011;16713;52.916;12.834;2024-01-27T10:00:12;17.63;;;4.35;;
29824;SDS011;16713;52.916;12.834;2024-01-27T10:02:40;19.27;;;5.03;;
29824;SDS011;16713;52.916;12.834;2024-01-27T10:05:10;19.35;;;3.25;;
29824;SDS011;16713;52.916;12.834;2024-01-27T10:07:39;25.50;;;4.37;;
29824;SDS011;16713;52.916;12.834;2024-01-27T10:10:06;17.33;;;3.83;;
29824;SDS011;16713;52.916;12.834;2024-01-27T10:12:33;18.77;;;3.53;;
29824;SDS011;16713;52.916;12.834;2024-01-27T10:15:06;19.50;;;5.55;;
29824;SDS011;16713;52.916;12.834;2024-01-27T10:17:33;20.75;;;4.07;;
29824;SDS011;16713;52.916;12.834;2024-01-27T10:20:04;13.88;;;4.32;;
29824;SDS011;16713;52.916;12.834;2024-01-27T10:22:38;21.33;;;5.20;;
29824;SDS011;16713;52.916;12.834;2024-01-27T10:25:05;18.55;;;4.82;;
29824;SDS011;16713;52.916;12.834;2024-01-27T10:27:33;23.95;;;4.97;;
29824;SDS011;16713;52.916;12.834;2024-01-27T10:30:00;12.82;;;4.47;;
29824;SDS011;16713;52.916;12.834;2024-01-27T10:32:27;24.65;;;3.95;;
29824;SDS011;16713;52.916;12.834;2024-01-27T10:37:30;18.95;;;4.32;;
29824;SDS011;16713;52.916;12.834;2024-01-27T10:40:00;22.08;;;4.38;;
29824;SDS011;16713;52.916;12.834;2024-01-27T10:42:28;20.95;;;5.22;;
29824;SDS011;16713;52.916;12.834;2024-01-27T10:44:59;28.20;;;8.38;;
29824;SDS011;16713;52.916;12.834;2024-01-27T10:47:30;62.25;;;25.48;;
29824;SDS011;16713;52.916;12.834;2024-01-27T10:49:58;59.88;;;23.85;;
29824;SDS011;16713;52.916;12.834;2024-01-27T10:52:28;33.47;;;11.05;;
29824;SDS011;16713;52.916;12.834;2024-01-27T10:55:01;17.38;;;5.82;;
29824;SDS011;16713;52.916;12.834;2024-01-27T10:57:30;23.17;;;6.57;;
29824;SDS011;16713;52.916;12.834;2024-01-27T10:59:57;21.17;;;6.50;;
29824;SDS011;16713;52.916;12.834;2024-01-27T11:02:24;21.90;;;6.25;;
29824;SDS011;16713;52.916;12.834;2024-01-27T11:04:51;24.70;;;6.20;;
29824;SDS011;16713;52.916;12.834;2024-01-27T11:07:22;28.38;;;8.30;;
29824;SDS011;16713;52.916;12.834;2024-01-27T11:09:49;22.73;;;5.82;;
29824;SDS011;16713;52.916;12.834;2024-01-27T11:12:18;23.05;;;7.22;;
29824;SDS011;16713;52.916;12.834;2024-01-27T11:14:46;40.47;;;14.63;;
29824;SDS011;16713;52.916;12.834;2024-01-27T11:17:14;43.47;;;10.48;;
29824;SDS011;16713;52.916;12.834;2024-01-27T11:19:41;23.98;;;7.05;;
29824;SDS011;16713;52.916;12.834;2024-01-27T11:22:17;21.13;;;5.78;;
29824;SDS011;16713;52.916;12.834;2024-01-27T11:24:51;20.17;;;5.22;;
29824;SDS011;16713;52.916;12.834;2024-01-27T11:27:18;25.50;;;4.95;;
29824;SDS011;16713;52.916;12.834;2024-01-27T11:29:47;19.83;;;4.28;;
29824;SDS011;16713;52.916;12.834;2024-01-27T11:32:14;17.38;;;3.97;;
29824;SDS011;16713;52.916;12.834;2024-01-27T11:34:42;16.92;;;4.57;;
29824;SDS011;16713;52.916;12.834;2024-01-27T11:37:19;21.70;;;4.05;;
29824;SDS011;16713;52.916;12.834;2024-01-27T11:39:51;18.02;;;5.32;;
29824;SDS011;16713;52.916;12.834;2024-01-27T11:42:20;21.05;;;7.13;;
29824;SDS011;16713;52.916;12.834;2024-01-27T11:44:47;20.77;;;6.32;;
29824;SDS011;16713;52.916;12.834;2024-01-27T11:47:17;19.08;;;4.88;;
29824;SDS011;16713;52.916;12.834;2024-01-27T11:49:51;23.10;;;4.65;;
29824;SDS011;16713;52.916;12.834;2024-01-27T11:52:20;19.20;;;5.35;;
29824;SDS011;16713;52.916;12.834;2024-01-27T11:54:53;25.70;;;6.53;;
29824;SDS011;16713;52.916;12.834;2024-01-27T11:57:26;20.90;;;3.75;;
29824;SDS011;16713;52.916;12.834;2024-01-27T11:59:53;18.73;;;4.38;;
29824;SDS011;16713;52.916;12.834;2024-01-27T12:02:20;16.63;;;4.57;;
29824;SDS011;16713;52.916;12.834;2024-01-27T12:04:48;17.63;;;5.55;;
29824;SDS011;16713;52.916;12.834;2024-01-27T12:07:16;15.60;;;4.43;;
29824;SDS011;16713;52.916;12.834;2024-01-27T12:09:46;19.42;;;4.68;;
29824;SDS011;16713;52.916;12.834;2024-01-27T12:12:14;21.73;;;5.05;;
29824;SDS011;16713;52.916;12.834;2024-01-27T12:14:41;36.15;;;8.35;;
29824;SDS011;16713;52.916;12.834;2024-01-27T12:17:11;21.42;;;4.65;;
29824;SDS011;16713;52.916;12.834;2024-01-27T12:19:38;14.48;;;3.67;;
29824;SDS011;16713;52.916;12.834;2024-01-27T12:22:05;18.70;;;3.60;;
29824;SDS011;16713;52.916;12.834;2024-01-27T12:24:48;26.10;;;5.75;;
29824;SDS011;16713;52.916;12.834;2024-01-27T12:27:17;21.92;;;4.97;;
29824;SDS011;16713;52.916;12.834;2024-01-27T12:29:47;26.80;;;5.97;;
29824;SDS011;16713;52.916;12.834;2024-01-27T12:32:15;29.77;;;4.15;;
29824;SDS011;16713;52.916;12.834;2024-01-27T12:34:42;14.70;;;3.55;;
29824;SDS011;16713;52.916;12.834;2024-01-27T12:37:10;15.35;;;4.68;;
29824;SDS011;16713;52.916;12.834;2024-01-27T12:39:37;22.90;;;4.53;;
29824;SDS011;16713;52.916;12.834;2024-01-27T12:42:07;19.45;;;4.47;;
29824;SDS011;16713;52.916;12.834;2024-01-27T12:44:34;21.30;;;4.72;;
29824;SDS011;16713;52.916;12.834;2024-01-27T12:47:00;15.48;;;3.47;;
29824;SDS011;16713;52.916;12.834;2024-01-27T12:49:27;14.20;;;3.50;;
29824;SDS011;16713;52.916;12.834;2024-01-27T12:51:53;22.98;;;5.00;;
29824;SDS011;16713;52.916;12.834;2024-01-27T12:54:20;20.05;;;4.32;;
29824;SDS011;16713;52.916;12.834;2024-01-27T12:56:47;22.77;;;5.15;;
29824;SDS011;16713;52.916;12.834;2024-01-27T12:59:13;19.45;;;5.18;;
29824;SDS011;16713;52.916;12.834;2024-01-27T13:01:40;13.13;;;4.38;;
29824;SDS011;16713;52.916;12.834;2024-01-27T13:04:07;14.27;;;3.90;;
29824;SDS011;16713;52.916;12.834;2024-01-27T13:06:33;19.48;;;3.85;;
29824;SDS011;16713;52.916;12.834;2024-01-27T13:09:00;21.70;;;4.53;;
29824;SDS011;16713;52.916;12.834;2024-01-27T13:11:27;22.35;;;4.88;;
29824;SDS011;16713;52.916;12.834;2024-01-27T13:13:53;17.38;;;3.80;;
29824;SDS011;16713;52.916;12.834;2024-01-27T13:16:20;17.65;;;4.18;;
29824;SDS011;16713;52.916;12.834;2024-01-27T13:18:47;23.40;;;3.72;;
29824;SDS011;16713;52.916;12.834;2024-01-27T13:21:13;18.42;;;5.45;;
29824;SDS011;16713;52.916;12.834;2024-01-27T13:23:40;16.15;;;3.97;;
29824;SDS011;16713;52.916;12.834;2024-01-27T13:26:07;18.90;;;3.97;;
29824;SDS011;16713;52.916;12.834;2024-01-27T13:28:45;20.20;;;5.05;;
29824;SDS011;16713;52.916;12.834;2024-01-27T13:31:12;16.63;;;3.85;;
29824;SDS011;16713;52.916;12.834;2024-01-27T13:33:39;17.20;;;4.38;;
29824;SDS011;16713;52.916;12.834;2024-01-27T13:36:05;15.27;;;4.10;;
29824;SDS011;16713;52.916;12.834;2024-01-27T13:38:33;21.15;;;3.70;;
29824;SDS011;16713;52.916;12.834;2024-01-27T13:41:01;16.25;;;3.50;;
29824;SDS011;16713;52.916;12.834;2024-01-27T13:43:28;23.88;;;5.10;;
29824;SDS011;16713;52.916;12.834;2024-01-27T13:45:54;25.90;;;4.70;;
29824;SDS011;16713;52.916;12.834;2024-01-27T13:48:21;17.10;;;4.82;;
29824;SDS011;16713;52.916;12.834;2024-01-27T13:50:48;18.95;;;4.47;;
29824;SDS011;16713;52.916;12.834;2024-01-27T13:53:14;20.77;;;4.00;;
29824;SDS011;16713;52.916;12.834;2024-01-27T13:55:40;14.60;;;3.58;;
29824;SDS011;16713;52.916;12.834;2024-01-27T13:58:09;13.98;;;3.83;;
29824;SDS011;16713;52.916;12.834;2024-01-27T14:00:35;22.48;;;3.67;;
29824;SDS011;16713;52.916;12.834;2024-01-27T14:03:02;30.33;;;4.63;;
29824;SDS011;16713;52.916;12.834;2024-01-27T14:05:29;18.63;;;4.30;;
29824;SDS011;16713;52.916;12.834;2024-01-27T14:07:56;18.10;;;3.90;;
29824;SDS011;16713;52.916;12.834;2024-01-27T14:10:22;13.93;;;4.03;;
29824;SDS011;16713;52.916;12.834;2024-01-27T14:12:50;19.17;;;3.72;;
29824;SDS011;16713;52.916;12.834;2024-01-27T14:15:17;21.15;;;4.68;;
29824;SDS011;16713;52.916;12.834;2024-01-27T14:17:44;16.88;;;4.55;;
29824;SDS011;16713;52.916;12.834;2024-01-27T14:20:11;14.75;;;3.30;;
29824;SDS011;16713;52.916;12.834;2024-01-27T14:22:38;16.38;;;3.53;;